Cunningham, KS

7:39 AM CDT on July 23, 2017 (GMT -0500)
Pratt Industrial | | Change Station

Elev 1952 ft 37.70 °N, 98.75 °W | Updated 24 minutes ago

Rain
Rain
69 °F
Feels Like 69 °F
N
7
Wind Variable Wind from ENE

Today
High -- | Low -- °F
--% Chance of Precip.
Yesterday
High -- | Low -- °F
Precip. -- in
Pressure 30.01 in
Visibility 10.0 miles
Clouds Overcast 8500 ft
Dew Point 65 °F
Humidity 86%
Rainfall 0.09 in
Snow Depth Not available.
6:30 AM 8:49 PM
New Moon, 0% visible
METAR KPTT 231215Z AUTO 06006KT 10SM -VCTSDZ OVC085 21/18 A3001 RMK AO2 LTG DSNT S T02060181
Pressure 30.01 in
Visibility 10.0 miles
Clouds Overcast 8500 ft
Dew Point 65 °F
Humidity 86%
Rainfall 0.09 in
Snow Depth Not available.
6:30 AM 8:49 PM
New Moon, 0% visible
METAR KPTT 231215Z AUTO 06006KT 10SM -VCTSDZ OVC085 21/18 A3001 RMK AO2 LTG DSNT S T02060181

Get Severe Weather Alerts

Thanks for signing up!

Be on the lookout for a verification email in your inbox.

You'll start receiving the daily forecast at 6 AM.

×

10-Day Weather Forecast

Almanac

Astronomy

Jul. 23, 2017 Rise Set
Actual Time
Civil Twilight
Nautical Twilight
Astronomical Twilight
Moon
Length of Visible Light
Length of Day
Tomorrow will be .
, % of the Moon is Illuminated

Today's Extremes

State Highs State Lows

Community

WunderPhotos

Category 6

Welcome to Category 6. This is the collective home for Weather Underground's featured writeups by Dr. Jeff Masters (right), Bob Henson (left), Chris Burt, and other regular contributors.

Nearby

Air Quality

  Air Quality AQ Index Pollutant
Not available.

Snow Depth

Station Depth Elevation

Earthquake Activity

City Distance Mag. Time & Date
Minimum magnitude displayed is 2.5.

Coastal Water Temperatures

Place Temperature

Stations

Nearby Weather Stations

Station Location Temp. Windchill Dew Point Humidity Wind Precip. Elev Updated Type
                   

Watches & Warnings

There are currently no watches in effect.